Time;durP1;ratioP1;P1;durP2;ratioP2;P2;SDS_P1;SDS_P2;PMS_P1;PMS_P2;Temp;Humidity;BMP_temperature;BMP_pressure;BME280_temperature;BME280_humidity;BME280_pressure;Samples;Min_cycle;Max_cycle;Signal;HPM_P1;HPM_P2
2022/08/23 00:02:15;;;;;;;11.57;7.23;;;;;;;;;;5058139;28;20862;-68
2022/08/23 00:04:42;;;;;;;13.50;7.13;;;19.30;76.20;;;;;;5041420;28;20483;-67
2022/08/23 00:07:12;;;;;;;24.00;9.83;;;19.10;76.80;;;;;;5040860;28;20518;-69
2022/08/23 00:09:39;;;;;;;13.33;10.10;;;;;;;;;;5058127;28;20508;-69
2022/08/23 00:12:12;;;;;;;13.90;7.23;;;18.80;77.50;;;;;;5045231;28;21223;-67
2022/08/23 00:14:42;;;;;;;21.30;12.17;;;18.70;78.00;;;;;;5051276;28;20568;-68
2022/08/23 00:17:09;;;;;;;22.73;9.07;;;18.70;78.10;;;;;;5045592;28;20524;-70
2022/08/23 00:19:36;;;;;;;21.40;11.20;;;18.40;78.80;;;;;;5043986;28;20516;-70
2022/08/23 00:22:03;;;;;;;17.50;9.50;;;18.10;79.80;;;;;;5062895;28;20792;-68
2022/08/23 00:24:30;;;;;;;16.87;9.23;;;18.10;79.70;;;;;;5045973;28;20478;-69
2022/08/23 00:26:59;;;;;;;16.70;9.20;;;;;;;;;;5060548;28;20489;-68
2022/08/23 00:29:30;;;;;;;16.77;10.77;;;;;;;;;;5062138;28;20475;-70
2022/08/23 00:31:58;;;;;;;13.50;8.70;;;18.30;78.90;;;;;;5064159;28;20779;-68
2022/08/23 00:34:25;;;;;;;36.73;8.47;;;18.30;78.30;;;;;;5062587;28;20889;-70
2022/08/23 00:36:53;;;;;;;16.80;10.17;;;18.40;78.60;;;;;;5057256;27;20873;-69
2022/08/23 00:39:21;;;;;;;14.17;8.27;;;18.40;78.10;;;;;;5065034;28;21379;-67
2022/08/23 00:41:49;;;;;;;23.23;8.33;;;;;;;;;;5070262;28;20480;-67
2022/08/23 00:49:55;;;;;;;20.03;8.30;;;;;;;;;;5054119;28;20539;-69
2022/08/23 00:52:26;;;;;;;28.40;8.43;;;;;;;;;;5058189;28;20532;-69
2022/08/23 00:54:54;;;;;;;13.43;8.50;;;18.40;78.20;;;;;;5062169;28;20475;-69
2022/08/23 00:57:23;;;;;;;19.67;8.83;;;18.30;78.40;;;;;;5064309;28;20482;-67
2022/08/23 00:59:50;;;;;;;13.10;6.57;;;;;;;;;;5062920;28;21154;-68
2022/08/23 01:02:19;;;;;;;19.07;7.63;;;;;;;;;;5038342;28;20460;-69
2022/08/23 01:04:49;;;;;;;15.00;7.20;;;;;;;;;;5030125;28;20480;-70
2022/08/23 01:07:19;;;;;;;15.40;7.10;;;;;;;;;;5024699;28;20483;-70
2022/08/23 01:09:47;;;;;;;13.10;6.70;;;;;;;;;;5029582;28;20856;-70
2022/08/23 01:12:16;;;;;;;44.53;11.87;;;;;;;;;;5023332;28;21527;-68
2022/08/23 01:14:45;;;;;;;14.17;7.53;;;;;;;;;;5044848;28;20493;-69
2022/08/23 01:17:14;;;;;;;20.20;8.60;;;;;;;;;;5026351;28;20485;-70
2022/08/23 01:19:44;;;;;;;28.43;10.30;;;;;;;;;;5030377;28;20609;-68
2022/08/23 01:22:13;;;;;;;22.63;10.47;;;;;;;;;;5040804;28;20476;-68
2022/08/23 01:24:42;;;;;;;21.23;10.67;;;;;;;;;;5023070;28;20974;-67
2022/08/23 01:27:12;;;;;;;18.37;9.47;;;17.50;81.00;;;;;;5027961;28;20577;-68
2022/08/23 01:29:39;;;;;;;34.23;14.63;;;17.60;80.80;;;;;;5026488;28;20578;-69
2022/08/23 01:32:07;;;;;;;20.53;8.67;;;;;;;;;;5029603;28;20480;-68
2022/08/23 01:34:35;;;;;;;34.77;13.00;;;17.60;80.60;;;;;;5027717;28;20476;-69
2022/08/23 01:37:02;;;;;;;20.53;11.03;;;;;;;;;;5027198;28;20487;-68
2022/08/23 01:39:30;;;;;;;31.53;12.43;;;;;;;;;;5026271;28;20854;-70
2022/08/23 01:41:58;;;;;;;16.10;8.53;;;;;;;;;;5028497;28;20562;-70
2022/08/23 01:44:26;;;;;;;21.10;10.13;;;;;;;;;;5038150;28;20692;-68
2022/08/23 01:46:53;;;;;;;39.17;11.13;;;17.70;80.00;;;;;;5021677;28;20771;-69
2022/08/23 01:49:20;;;;;;;11.43;7.53;;;17.70;80.40;;;;;;5061911;27;20481;-69
2022/08/23 01:51:47;;;;;;;22.23;7.27;;;17.70;79.90;;;;;;5062502;28;21387;-67
2022/08/23 01:54:13;;;;;;;36.67;9.00;;;17.70;79.20;;;;;;5072742;27;20910;-68
2022/08/23 01:56:41;;;;;;;24.23;12.10;;;17.80;78.90;;;;;;5055796;28;21400;-70
2022/08/23 01:59:12;;;;;;;11.87;7.23;;;17.70;79.20;;;;;;5063655;28;20488;-70
2022/08/23 02:01:39;;;;;;;44.90;12.83;;;;;;;;;;5060486;28;20482;-70
2022/08/23 02:04:06;;;;;;;22.37;9.00;;;17.70;79.60;;;;;;5065806;28;20481;-69
2022/08/23 02:06:34;;;;;;;23.60;12.03;;;;;;;;;;5055832;28;20474;-70
2022/08/23 02:09:01;;;;;;;24.87;9.10;;;17.60;79.90;;;;;;5056834;28;20487;-68
2022/08/23 02:11:29;;;;;;;16.37;9.30;;;17.60;79.70;;;;;;5058647;28;20612;-69
2022/08/23 02:14:00;;;;;;;14.77;7.67;;;;;;;;;;5063799;28;20470;-70
2022/08/23 02:16:29;;;;;;;17.20;9.10;;;;;;;;;;5060555;28;21195;-68
2022/08/23 02:18:57;;;;;;;10.00;6.93;;;17.30;80.70;;;;;;5063502;27;20488;-68
2022/08/23 02:21:23;;;;;;;16.47;9.00;;;17.20;80.60;;;;;;5050144;28;20488;-69
2022/08/23 02:23:51;;;;;;;14.10;8.17;;;;;;;;;;5054252;28;20862;-70
2022/08/23 02:26:18;;;;;;;13.00;8.10;;;;;;;;;;5038701;28;21000;-68
2022/08/23 02:28:45;;;;;;;17.33;8.73;;;;;;;;;;5041246;28;20845;-70
2022/08/23 02:31:12;;;;;;;16.37;9.13;;;16.80;81.30;;;;;;5065706;27;20482;-69
2022/08/23 02:33:41;;;;;;;24.73;10.23;;;;;;;;;;5045756;28;20479;-69
2022/08/23 02:36:08;;;;;;;33.50;9.17;;;;;;;;;;5042874;28;20822;-70
2022/08/23 02:38:35;;;;;;;32.50;13.97;;;;;;;;;;5062872;28;20916;-69
2022/08/23 02:41:02;;;;;;;21.43;10.73;;;;;;;;;;5057962;27;20500;-70
2022/08/23 02:43:29;;;;;;;29.20;12.77;;;;;;;;;;5064515;28;20486;-68
2022/08/23 02:45:56;;;;;;;16.87;8.87;;;;;;;;;;5044140;28;20670;-70
2022/08/23 02:48:24;;;;;;;20.43;9.57;;;;;;;;;;5040694;28;20485;-67
2022/08/23 02:50:52;;;;;;;17.60;8.60;;;;;;;;;;5040577;28;20479;-69
2022/08/23 02:53:19;;;;;;;19.37;9.43;;;;;;;;;;5028226;28;20478;-68
2022/08/23 02:55:46;;;;;;;25.43;8.93;;;;;;;;;;5025945;28;20487;-68
2022/08/23 02:58:14;;;;;;;50.23;11.73;;;;;;;;;;5025829;28;20468;-69
2022/08/23 03:00:41;;;;;;;26.27;10.23;;;;;;;;;;5041330;28;20470;-68
2022/08/23 03:03:07;;;;;;;19.50;8.53;;;15.80;84.80;;;;;;5062083;28;20854;-68
2022/08/23 03:05:35;;;;;;;69.00;15.07;;;;;;;;;;5053273;27;20478;-67
2022/08/23 03:08:04;;;;;;;22.53;9.30;;;;;;;;;;5051362;27;20490;-70
2022/08/23 03:10:31;;;;;;;34.50;15.53;;;;;;;;;;5072656;28;20478;-68
2022/08/23 03:12:58;;;;;;;55.37;8.17;;;;;;;;;;5066280;27;20495;-69
2022/08/23 03:15:25;;;;;;;21.83;9.10;;;;;;;;;;5053708;28;20478;-69
2022/08/23 03:17:53;;;;;;;16.67;7.63;;;;;;;;;;5066931;27;20469;-68
2022/08/23 03:20:20;;;;;;;43.47;11.30;;;;;;;;;;5053919;28;20478;-68
2022/08/23 03:22:47;;;;;;;20.57;9.17;;;;;;;;;;5052420;27;20482;-68
2022/08/23 03:25:15;;;;;;;20.63;9.63;;;;;;;;;;5065493;28;20801;-67
2022/08/23 03:27:42;;;;;;;41.63;11.30;;;;;;;;;;5067704;27;20701;-69
2022/08/23 03:30:10;;;;;;;18.80;9.03;;;19.30;88.30;;;;;;5057552;28;20477;-68
2022/08/23 03:32:37;;;;;;;27.93;12.00;;;;;;;;;;5067588;28;20482;-68
2022/08/23 03:35:05;;;;;;;33.23;9.23;;;;;;;;;;5060210;27;20488;-68
2022/08/23 03:37:33;;;;;;;33.30;13.10;;;;;;;;;;5075326;27;20478;-70
2022/08/23 03:40:00;;;;;;;29.57;10.17;;;;;;;;;;5061550;28;20507;-68
2022/08/23 03:42:28;;;;;;;39.50;12.60;;;;;;;;;;5060461;28;20469;-69
2022/08/23 03:44:55;;;;;;;31.60;8.87;;;;;;;;;;5068902;28;20795;-67
2022/08/23 03:47:23;;;;;;;25.57;10.50;;;;;;;;;;5058287;28;20470;-68
2022/08/23 03:49:50;;;;;;;31.40;9.77;;;;;;;;;;5066746;28;20475;-68
2022/08/23 03:52:17;;;;;;;24.53;8.63;;;;;;;;;;5048077;27;20731;-67
2022/08/23 03:54:44;;;;;;;25.40;9.03;;;;;;;;;;5071101;27;20491;-68
2022/08/23 03:57:12;;;;;;;49.70;12.60;;;;;;;;;;5076032;27;20474;-68
2022/08/23 03:59:41;;;;;;;67.63;15.40;;;;;;;;;;5064682;28;20673;-68
2022/08/23 04:02:09;;;;;;;39.77;10.30;;;15.80;83.00;;;;;;5065285;27;20718;-68
2022/08/23 04:04:36;;;;;;;34.70;13.50;;;;;;;;;;5052975;28;20479;-68
2022/08/23 04:07:04;;;;;;;36.93;12.20;;;;;;;;;;5056142;28;20474;-69
2022/08/23 04:09:32;;;;;;;45.20;13.70;;;;;;;;;;5067868;28;20528;-69
2022/08/23 04:11:59;;;;;;;39.77;10.10;;;;;;;;;;5057152;28;20478;-70
2022/08/23 04:14:26;;;;;;;39.07;13.87;;;;;;;;;;5064785;28;20851;-69
2022/08/23 04:16:55;;;;;;;54.43;13.53;;;;;;;;;;5063199;28;20861;-68
2022/08/23 04:19:22;;;;;;;35.20;10.30;;;;;;;;;;5054714;28;21015;-70
2022/08/23 04:21:51;;;;;;;45.57;11.13;;;;;;;;;;5072465;27;20481;-67
2022/08/23 04:24:18;;;;;;;28.23;9.97;;;;;;;;;;5061378;28;20471;-69
2022/08/23 04:26:45;;;;;;;53.50;12.53;;;;;;;;;;5065712;27;20831;-68
2022/08/23 04:29:15;;;;;;;54.07;11.43;;;;;;;;;;5066776;27;20491;-68
2022/08/23 04:31:42;;;;;;;52.57;12.60;;;;;;;;;;5059833;28;20768;-67
2022/08/23 04:34:11;;;;;;;66.67;12.83;;;;;;;;;;5060323;28;20488;-66
2022/08/23 04:36:40;;;;;;;88.10;16.50;;;;;;;;;;5063969;28;20954;-68
2022/08/23 04:39:07;;;;;;;57.17;10.23;;;;;;;;;;5060364;27;20882;-68
2022/08/23 04:44:25;;;;;;;60.83;11.67;;;;;;;;;;5016255;28;20583;-69
2022/08/23 04:46:52;;;;;;;42.20;11.30;;;;;;;;;;5035998;28;20735;-67
2022/08/23 04:49:21;;;;;;;27.97;9.00;;;;;;;;;;5045016;28;20920;-67
2022/08/23 04:51:48;;;;;;;39.87;10.40;;;;;;;;;;5052748;28;20488;-69
2022/08/23 04:54:16;;;;;;;41.53;11.40;;;;;;;;;;5060041;28;20483;-67
2022/08/23 04:56:43;;;;;;;70.37;14.43;;;;;;;;;;5063532;28;20479;-68
2022/08/23 04:59:09;;;;;;;42.10;9.93;;;15.20;86.70;;;;;;5055678;28;20502;-69
2022/08/23 05:01:37;;;;;;;57.37;15.10;;;;;;;;;;5041555;28;21141;-68
2022/08/23 05:04:04;;;;;;;41.97;11.57;;;;;;;;;;5031504;28;20476;-68
2022/08/23 05:06:33;;;;;;;47.07;13.30;;;;;;;;;;5029444;28;20483;-68
2022/08/23 05:09:00;;;;;;;45.07;10.03;;;;;;;;;;5025702;28;20480;-69
2022/08/23 05:11:28;;;;;;;42.40;11.03;;;;;;;;;;5027491;28;20967;-67
2022/08/23 05:13:56;;;;;;;50.40;10.53;;;;;;;;;;5029170;28;20586;-67
2022/08/23 05:16:24;;;;;;;53.83;12.17;;;;;;;;;;5025512;28;20522;-69
2022/08/23 05:18:51;;;;;;;63.07;13.60;;;;;;;;;;5015647;28;20483;-69
2022/08/23 05:21:20;;;;;;;36.30;10.77;;;;;;;;;;5050098;28;20832;-67
2022/08/23 05:23:48;;;;;;;48.37;10.60;;;;;;;;;;5028030;28;20487;-69
2022/08/23 05:26:15;;;;;;;45.33;11.30;;;;;;;;;;5026222;28;20490;-68
2022/08/23 05:28:44;;;;;;;86.47;16.43;;;;;;;;;;5038897;28;20472;-66
2022/08/23 05:31:13;;;;;;;61.50;11.30;;;;;;;;;;5028399;28;20480;-66
2022/08/23 05:33:41;;;;;;;65.87;15.20;;;;;;;;;;5017842;28;20669;-67
2022/08/23 05:36:09;;;;;;;66.07;12.40;;;15.50;89.10;;;;;;5054505;28;20846;-68
2022/08/23 05:38:36;;;;;;;94.93;19.60;;;;;;;;;;5030387;28;20944;-69
2022/08/23 05:41:05;;;;;;;58.77;11.83;;;;;;;;;;5014255;28;20487;-67
2022/08/23 05:43:33;;;;;;;85.43;16.53;;;;;;;;;;5046749;28;20482;-69
2022/08/23 05:46:01;;;;;;;64.10;12.50;;;;;;;;;;5027705;28;20480;-69
2022/08/23 05:48:28;;;;;;;59.87;12.77;;;;;;;;;;5024291;28;20567;-69
2022/08/23 05:50:55;;;;;;;55.40;10.00;;;;;;;;;;5027263;28;20487;-68
2022/08/23 05:53:22;;;;;;;44.83;10.53;;;;;;;;;;5025447;28;20479;-69
2022/08/23 05:55:50;;;;;;;45.90;11.57;;;;;;;;;;5017429;28;20482;-70
2022/08/23 05:58:18;;;;;;;67.77;13.83;;;;;;;;;;5033247;28;20518;-68
2022/08/23 06:00:45;;;;;;;54.47;13.17;;;;;;;;;;5028737;28;21238;-68
2022/08/23 06:03:12;;;;;;;50.43;11.33;;;16.70;90.00;;;;;;5055488;28;20485;-70
2022/08/23 06:05:40;;;;;;;114.90;20.70;;;;;;;;;;5031551;28;20487;-69
2022/08/23 06:08:08;;;;;;;67.00;13.27;;;;;;;;;;5030447;28;20549;-68
2022/08/23 06:10:36;;;;;;;90.17;17.63;;;;;;;;;;5027576;28;20517;-69
2022/08/23 06:13:03;;;;;;;71.60;14.30;;;;;;;;;;5052145;28;20655;-67
2022/08/23 06:15:31;;;;;;;101.13;20.77;;;;;;;;;;5063610;28;20873;-68
2022/08/23 06:17:58;;;;;;;48.53;11.90;;;;;;;;;;5065344;28;20489;-67
2022/08/23 06:20:25;;;;;;;48.07;13.37;;;;;;;;;;5048872;27;20481;-68
2022/08/23 06:22:52;;;;;;;58.40;13.50;;;;;;;;;;5063721;27;20481;-68
2022/08/23 06:25:19;;;;;;;41.13;11.50;;;;;;;;;;5073359;28;20470;-67
2022/08/23 06:27:47;;;;;;;58.07;13.33;;;;;;;;;;5063015;28;20481;-69
2022/08/23 06:30:14;;;;;;;64.20;15.17;;;18.30;90.70;;;;;;5059944;28;20553;-68
2022/08/23 06:32:42;;;;;;;108.10;19.93;;;;;;;;;;5054110;28;20654;-68
2022/08/23 06:35:10;;;;;;;87.73;15.80;;;;;;;;;;5055692;28;20486;-68
2022/08/23 06:37:38;;;;;;;106.20;19.10;;;18.90;90.50;;;;;;5054345;28;20482;-68
2022/08/23 06:40:05;;;;;;;64.53;12.40;;;;;;;;;;5059247;28;21405;-68
2022/08/23 06:42:32;;;;;;;131.60;21.47;;;;;;;;;;5055835;28;20727;-69
2022/08/23 06:44:59;;;;;;;75.10;12.80;;;;;;;;;;5044238;28;20800;-68
2022/08/23 06:47:26;;;;;;;90.73;15.93;;;;;;;;;;5041226;28;21042;-69
2022/08/23 06:49:55;;;;;;;63.17;12.17;;;;;;;;;;5042377;28;20538;-69
2022/08/23 06:52:22;;;;;;;73.40;13.03;;;;;;;;;;5062943;28;20571;-68
2022/08/23 06:54:51;;;;;;;54.83;11.40;;;;;;;;;;5065216;28;20463;-68
2022/08/23 06:57:19;;;;;;;42.63;10.20;;;;;;;;;;5061318;27;20476;-70
2022/08/23 06:59:46;;;;;;;48.70;10.63;;;;;;;;;;5070056;28;20477;-70
2022/08/23 07:02:14;;;;;;;59.10;11.50;;;;;;;;;;5065760;27;20916;-71
2022/08/23 07:04:41;;;;;;;71.80;14.43;;;;;;;;;;5061133;28;20478;-69
2022/08/23 07:07:10;;;;;;;69.80;14.63;;;24.30;78.40;;;;;;5055952;28;20560;-69
2022/08/23 07:09:37;;;;;;;80.97;16.73;;;;;;;;;;5059391;27;20468;-69
2022/08/23 07:12:04;;;;;;;44.80;9.67;;;;;;;;;;5053098;28;20476;-69
2022/08/23 07:14:31;;;;;;;61.73;13.30;;;;;;;;;;5069903;28;20470;-69
2022/08/23 07:17:00;;;;;;;62.50;13.13;;;;;;;;;;5064128;28;20698;-69
2022/08/23 07:19:28;;;;;;;35.90;10.37;;;;;;;;;;5062595;28;21469;-70
2022/08/23 07:21:55;;;;;;;41.93;8.37;;;;;;;;;;5057580;28;20561;-70
2022/08/23 07:24:24;;;;;;;29.90;9.00;;;;;;;;;;5058889;28;20483;-68
2022/08/23 07:26:52;;;;;;;63.63;14.60;;;;;;;;;;5062519;28;20475;-69
2022/08/23 07:29:20;;;;;;;43.57;8.90;;;;;;;;;;5057606;28;20823;-70
2022/08/23 07:31:48;;;;;;;31.43;8.73;;;;;;;;;;5063205;28;20484;-70
2022/08/23 07:34:16;;;;;;;44.23;10.20;;;;;;;;;;5054869;28;20830;-69
2022/08/23 07:36:45;;;;;;;34.13;9.53;;;24.40;76.50;;;;;;5056452;28;21333;-70
2022/08/23 07:39:12;;;;;;;47.97;10.60;;;;;;;;;;5046793;28;20502;-70
2022/08/23 07:41:41;;;;;;;70.63;15.17;;;24.10;76.00;;;;;;5059668;28;20882;-70
2022/08/23 07:44:09;;;;;;;46.23;11.80;;;;;;;;;;5055042;28;21121;-71
2022/08/23 07:46:38;;;;;;;68.63;14.73;;;23.90;76.20;;;;;;5058036;28;20478;-70
2022/08/23 07:49:05;;;;;;;41.43;9.97;;;;;;;;;;5064740;28;20480;-70
2022/08/23 07:51:33;;;;;;;65.13;14.97;;;;;;;;;;5063046;28;20469;-70
2022/08/23 07:54:02;;;;;;;43.77;11.03;;;;;;;;;;5036004;28;20785;-68
2022/08/23 07:56:29;;;;;;;60.87;9.03;;;;;;;;;;5060443;28;20486;-69
2022/08/23 07:58:57;;;;;;;49.27;10.37;;;;;;;;;;5052992;28;20482;-69
2022/08/23 08:01:26;;;;;;;63.10;13.13;;;;;;;;;;5059789;28;20478;-69
2022/08/23 08:03:54;;;;;;;48.33;9.60;;;;;;;;;;5058645;28;20858;-70
2022/08/23 08:06:23;;;;;;;37.07;8.60;;;;;;;;;;5061732;28;20490;-71
2022/08/23 08:08:50;;;;;;;45.80;11.07;;;;;;;;;;5053129;28;21380;-71
2022/08/23 08:11:18;;;;;;;44.20;10.30;;;;;;;;;;5075593;28;20863;-70
2022/08/23 08:13:46;;;;;;;51.50;11.30;;;;;;;;;;5040035;28;20558;-68
2022/08/23 08:16:22;;;;;;;44.47;8.97;;;;;;;;;;5052661;28;20592;-69
2022/08/23 08:18:49;;;;;;;67.50;14.30;;;;;;;;;;5060174;28;20469;-70
2022/08/23 08:21:17;;;;;;;25.37;6.73;;;25.80;72.30;;;;;;5061362;28;20474;-71
2022/08/23 08:23:44;;;;;;;68.17;13.30;;;;;;;;;;5053724;27;20486;-69
2022/08/23 08:26:11;;;;;;;41.27;9.53;;;26.00;71.00;;;;;;5057490;27;20978;-70
2022/08/23 08:28:39;;;;;;;88.37;18.13;;;;;;;;;;5057333;28;21324;-71
2022/08/23 08:31:07;;;;;;;52.10;11.10;;;;;;;;;;5048992;28;20482;-70
2022/08/23 08:33:35;;;;;;;81.90;16.27;;;26.20;69.90;;;;;;5061760;28;20563;-71
2022/08/23 08:36:02;;;;;;;66.90;15.40;;;;;;;;;;5043307;28;21225;-71
2022/08/23 08:38:30;;;;;;;60.60;14.77;;;;;;;;;;5055890;27;20821;-71
2022/08/23 08:41:01;;;;;;;45.93;11.00;;;;;;;;;;5066951;28;20678;-71
2022/08/23 08:43:31;;;;;;;49.00;11.53;;;;;;;;;;5064586;28;20474;-69
2022/08/23 08:46:02;;;;;;;43.00;9.50;;;;;;;;;;5053074;27;20833;-70
2022/08/23 08:48:30;;;;;;;60.00;13.53;;;;;;;;;;5062957;28;20477;-70
2022/08/23 08:51:03;;;;;;;35.67;9.77;;;27.20;67.20;;;;;;5065918;28;20481;-70
2022/08/23 08:53:32;;;;;;;18.80;8.60;;;;;;;;;;5058971;28;20474;-70
2022/08/23 08:56:01;;;;;;;41.40;10.57;;;;;;;;;;5051681;27;20478;-68
2022/08/23 08:58:30;;;;;;;53.33;11.60;;;;;;;;;;5041406;28;20517;-71
2022/08/23 09:00:58;;;;;;;47.90;10.50;;;;;;;;;;5050379;28;20485;-69
2022/08/23 09:03:31;;;;;;;28.37;8.37;;;27.60;66.20;;;;;;5039776;28;21180;-69
2022/08/23 09:06:01;;;;;;;58.00;13.33;;;;;;;;;;5022141;28;20483;-70
2022/08/23 09:08:40;;;;;;;29.80;9.47;;;28.20;67.80;;;;;;5020845;28;20606;-71
2022/08/23 09:11:16;;;;;;;39.37;7.57;;;28.70;66.70;;;;;;5023045;28;20490;-70
2022/08/23 09:13:55;;;;;;;22.53;7.73;;;;;;;;;;5063716;28;20488;-70
2022/08/23 09:16:38;;;;;;;26.53;7.43;;;29.50;65.60;;;;;;5055376;28;20485;-69
2022/08/23 09:19:05;;;;;;;25.53;7.90;;;29.60;62.50;;;;;;5061093;28;20825;-73
2022/08/23 09:21:43;;;;;;;42.23;10.53;;;29.70;64.80;;;;;;5047069;28;20481;-71
2022/08/23 09:24:10;;;;;;;11.00;5.20;;;;;;;;;;5067203;28;20560;-73
2022/08/23 09:26:37;;;;;;;18.60;9.47;;;30.50;63.40;;;;;;5057810;27;20479;-72
2022/08/23 09:29:08;;;;;;;15.40;7.80;;;;;;;;;;5054958;27;20467;-70
2022/08/23 09:31:41;;;;;;;34.50;10.80;;;;;;;;;;5078199;28;20449;-70
2022/08/23 09:34:08;;;;;;;37.63;9.60;;;;;;;;;;5062146;28;21011;-71
2022/08/23 09:36:38;;;;;;;35.07;12.67;;;;;;;;;;5064708;28;20482;-70
2022/08/23 09:39:08;;;;;;;19.47;7.30;;;;;;;;;;5060582;28;20570;-69
2022/08/23 09:41:37;;;;;;;31.53;10.43;;;;;;;;;;5060808;28;20595;-69
2022/08/23 09:44:04;;;;;;;13.73;7.40;;;;;;;;;;5057428;28;20875;-69
2022/08/23 09:46:34;;;;;;;16.47;9.70;;;;;;;;;;5059179;28;21238;-70
2022/08/23 09:49:21;;;;;;;8.50;6.07;;;;;;;;;;5060457;28;20449;-72
2022/08/23 09:51:50;;;;;;;17.40;6.97;;;31.50;60.10;;;;;;5062324;28;20491;-72
2022/08/23 09:54:19;;;;;;;17.80;6.13;;;;;;;;;;5060843;28;20503;-71
2022/08/23 09:56:52;;;;;;;17.00;8.77;;;;;;;;;;5050883;28;21065;-71
2022/08/23 09:59:23;;;;;;;11.17;7.17;;;;;;;;;;5043001;28;21018;-71
2022/08/23 10:01:50;;;;;;;14.17;6.63;;;;;;;;;;5057549;28;20486;-72
2022/08/23 10:04:23;;;;;;;9.70;7.17;;;32.80;58.20;;;;;;5051860;28;20487;-73
2022/08/23 10:06:52;;;;;;;21.80;7.63;;;;;;;;;;5064366;28;20749;-72
2022/08/23 10:09:23;;;;;;;14.17;8.33;;;;;;;;;;5053865;27;20485;-74
2022/08/23 10:11:50;;;;;;;15.23;6.53;;;;;;;;;;5061799;27;20497;-71
2022/08/23 10:14:20;;;;;;;7.43;5.63;;;;;;;;;;5071652;27;20522;-73
2022/08/23 10:16:53;;;;;;;14.23;7.70;;;;;;;;;;5040685;28;20617;-73
2022/08/23 10:19:27;;;;;;;21.13;8.00;;;;;;;;;;5047256;28;21082;-70
2022/08/23 10:21:58;;;;;;;14.63;7.20;;;;;;;;;;5050159;27;20530;-70
2022/08/23 10:24:34;;;;;;;17.30;8.17;;;;;;;;;;5069813;28;20505;-70
2022/08/23 10:29:35;;;;;;;17.33;9.00;;;;;;;;;;5057414;28;20511;-71
2022/08/23 10:29:58;;;;;;;17.83;7.50;;;;;;;;;;5049469;28;20495;-71
2022/08/23 10:32:30;;;;;;;12.07;8.33;;;;;;;;;;5041735;28;20490;-72
2022/08/23 10:35:05;;;;;;;10.03;6.10;;;;;;;;;;5047064;28;20510;-70
2022/08/23 10:37:46;;;;;;;24.90;9.97;;;;;;;;;;5042299;27;20463;-70
2022/08/23 10:40:17;;;;;;;14.67;7.60;;;;;;;;;;5022505;28;20482;-70
2022/08/23 10:42:47;;;;;;;11.70;7.60;;;;;;;;;;5026941;28;20530;-70
2022/08/23 10:45:17;;;;;;;11.83;5.63;;;;;;;;;;5043379;28;20481;-72
2022/08/23 10:47:52;;;;;;;19.97;6.90;;;;;;;;;;5056220;28;20475;-72
2022/08/23 10:50:21;;;;;;;9.90;6.30;;;33.10;52.80;;;;;;5060896;27;20443;-71
2022/08/23 10:52:52;;;;;;;9.40;5.33;;;;;;;;;;5063420;28;20484;-72
2022/08/23 10:55:34;;;;;;;13.13;6.83;;;;;;;;;;5035778;28;20471;-69
2022/08/23 10:58:04;;;;;;;18.47;7.20;;;;;;;;;;5049155;27;20479;-70
2022/08/23 11:00:33;;;;;;;14.43;8.97;;;34.10;51.30;;;;;;5035441;27;20823;-70
2022/08/23 11:03:05;;;;;;;6.20;5.10;;;;;;;;;;5073512;28;20834;-71
2022/08/23 11:05:35;;;;;;;27.50;9.63;;;34.50;51.80;;;;;;5040979;27;20544;-72
2022/08/23 11:08:06;;;;;;;15.17;8.50;;;;;;;;;;5065701;27;20473;-72
2022/08/23 11:10:43;;;;;;;10.20;8.50;;;;;;;;;;5061209;28;20450;-71
2022/08/23 11:13:20;;;;;;;8.50;6.10;;;;;;;;;;5063302;28;20799;-71
2022/08/23 11:15:56;;;;;;;6.17;4.90;;;;;;;;;;5061033;28;21083;-71
2022/08/23 11:18:36;;;;;;;10.40;7.33;;;;;;;;;;5044803;28;20465;-71
2022/08/23 11:21:10;;;;;;;6.70;5.40;;;33.70;49.10;;;;;;5033317;28;20449;-72
2022/08/23 11:23:40;;;;;;;18.13;10.47;;;;;;;;;;5047377;28;20474;-72
2022/08/23 11:26:10;;;;;;;7.60;5.90;;;33.50;49.40;;;;;;5043143;28;20800;-71
2022/08/23 11:28:39;;;;;;;22.73;11.80;;;;;;;;;;5044566;28;20486;-70
2022/08/23 11:31:19;;;;;;;11.50;6.67;;;;;;;;;;5059482;27;21600;-73
2022/08/23 11:33:48;;;;;;;45.23;7.97;;;;;;;;;;5066738;28;20470;-72
2022/08/23 11:36:17;;;;;;;18.03;7.50;;;;;;;;;;5058704;28;20493;-70
2022/08/23 11:39:02;;;;;;;10.10;7.50;;;;;;;;;;5053645;28;20477;-74
2022/08/23 11:41:32;;;;;;;14.60;10.37;;;34.00;48.80;;;;;;5050691;28;20444;-72
2022/08/23 11:44:22;;;;;;;16.80;6.20;;;;;;;;;;5043947;28;20481;-72
2022/08/23 11:46:58;;;;;;;12.33;8.40;;;;;;;;;;5064952;28;20477;-70
2022/08/23 11:49:38;;;;;;;23.10;8.27;;;;;;;;;;5061502;28;20902;-73
2022/08/23 11:52:18;;;;;;;13.03;6.97;;;34.50;49.20;;;;;;5053273;28;20946;-70
2022/08/23 11:54:53;;;;;;;8.87;5.97;;;;;;;;;;5059237;28;20747;-72
2022/08/23 11:57:26;;;;;;;10.83;6.23;;;;;;;;;;5065284;27;20455;-71
2022/08/23 12:00:06;;;;;;;10.20;7.43;;;;;;;;;;5063414;28;20468;-71
2022/08/23 12:02:40;;;;;;;12.23;8.83;;;35.10;49.60;;;;;;5061646;28;20461;-71
2022/08/23 12:05:20;;;;;;;7.60;5.90;;;;;;;;;;5053029;28;20995;-71
2022/08/23 12:07:51;;;;;;;6.80;5.80;;;;;;;;;;5045950;28;20935;-71
2022/08/23 12:10:23;;;;;;;11.23;7.87;;;;;;;;;;5050348;28;20723;-71
2022/08/23 12:16:27;;;;;;;7.73;2.70;;;34.90;46.90;;;;;;5068858;27;20549;-52
2022/08/23 12:18:56;;;;;;;3.37;2.50;;;34.10;46.40;;;;;;5063306;27;20926;-51
2022/08/23 12:21:26;;;;;;;3.70;2.40;;;33.60;46.40;;;;;;5067555;28;20448;-52
2022/08/23 12:23:56;;;;;;;3.50;2.40;;;33.30;47.80;;;;;;5039103;27;20456;-52
2022/08/23 12:26:27;;;;;;;3.40;2.63;;;33.30;48.40;;;;;;5061934;27;21180;-51
2022/08/23 12:29:00;;;;;;;2.63;2.43;;;33.50;47.90;;;;;;5066988;28;21377;-53
2022/08/23 12:31:39;;;;;;;5.03;2.80;;;33.40;47.50;;;;;;5069337;28;21030;-52
2022/08/23 12:34:19;;;;;;;8.83;2.73;;;32.80;47.00;;;;;;5067424;28;20721;-52
2022/08/23 12:36:56;;;;;;;5.23;3.40;;;32.70;49.10;;;;;;5068850;27;20442;-50
2022/08/23 12:39:28;;;;;;;3.70;2.63;;;32.80;48.60;;;;;;5087703;27;20799;-52
2022/08/23 12:41:58;;;;;;;5.23;2.23;;;32.90;49.20;;;;;;5074880;28;21045;-52
2022/08/23 12:44:28;;;;;;;5.43;2.70;;;33.40;49.50;;;;;;5080397;28;20859;-52
2022/08/23 12:46:57;;;;;;;2.97;2.60;;;33.50;49.70;;;;;;5070314;28;20452;-53
2022/08/23 12:49:27;;;;;;;3.47;1.93;;;34.30;46.80;;;;;;5074337;28;20484;-52
2022/08/23 12:51:56;;;;;;;3.97;2.30;;;34.40;47.20;;;;;;5075109;28;20456;-51
2022/08/23 12:54:31;;;;;;;3.80;2.80;;;34.50;47.50;;;;;;5078328;28;20924;-53
2022/08/23 12:56:59;;;;;;;2.83;2.53;;;34.50;46.90;;;;;;5071087;28;20478;-52
2022/08/23 12:59:34;;;;;;;3.70;2.63;;;34.20;47.10;;;;;;5071678;28;20505;-51
2022/08/23 13:02:06;;;;;;;3.80;2.50;;;34.20;46.80;;;;;;5072981;28;20511;-51
2022/08/23 13:04:35;;;;;;;5.80;2.23;;;34.40;48.10;;;;;;5076339;28;20452;-51
2022/08/23 13:07:05;;;;;;;6.10;2.90;;;34.70;47.40;;;;;;5071399;28;20449;-52
2022/08/23 13:09:35;;;;;;;6.23;3.50;;;34.80;46.10;;;;;;5056580;28;20478;-51
2022/08/23 13:12:03;;;;;;;2.50;2.30;;;35.10;46.80;;;;;;5060757;28;20494;-51
2022/08/23 13:14:36;;;;;;;3.90;2.23;;;35.30;46.20;;;;;;5075897;28;20491;-51
2022/08/23 13:17:20;;;;;;;3.70;2.53;;;34.90;45.50;;;;;;5068289;28;20955;-52
2022/08/23 13:19:49;;;;;;;2.60;2.40;;;35.00;46.70;;;;;;5074336;28;20480;-51
2022/08/23 13:22:23;;;;;;;4.17;2.57;;;35.30;46.90;;;;;;5074473;28;20844;-52
2022/08/23 13:25:04;;;;;;;4.20;2.20;;;36.00;46.80;;;;;;5074068;28;20457;-52
2022/08/23 13:27:33;;;;;;;2.90;2.70;;;36.00;47.40;;;;;;5051210;27;20968;-54
2022/08/23 13:30:02;;;;;;;2.50;2.30;;;36.30;46.50;;;;;;5066998;28;20482;-51
2022/08/23 13:32:38;;;;;;;4.57;2.70;;;36.70;46.40;;;;;;5050335;28;20473;-52
2022/08/23 13:35:32;;;;;;;6.63;2.73;;;36.90;45.50;;;;;;5064527;28;20777;-52
2022/08/23 13:38:08;;;;;;;7.43;2.50;;;37.00;45.20;;;;;;5059845;28;20815;-52
2022/08/23 13:40:41;;;;;;;4.03;2.67;;;36.70;44.40;;;;;;5056835;28;21293;-52
2022/08/23 13:43:12;;;;;;;4.60;2.20;;;36.60;45.00;;;;;;5065801;28;20501;-52
2022/08/23 13:45:46;;;;;;;2.93;2.63;;;36.10;44.30;;;;;;5046431;28;20482;-52
2022/08/23 13:48:21;;;;;;;12.87;3.40;;;35.10;44.70;;;;;;5052930;28;20718;-52
2022/08/23 13:50:49;;;;;;;3.50;2.30;;;34.60;44.90;;;;;;5053724;28;20486;-52
2022/08/23 13:53:16;;;;;;;6.00;2.40;;;34.30;45.90;;;;;;5059542;28;20581;-51
2022/08/23 13:55:46;;;;;;;7.90;2.77;;;33.30;47.00;;;;;;5047469;28;20471;-51
2022/08/23 13:58:24;;;;;;;3.07;2.13;;;33.30;47.50;;;;;;5069871;28;21085;-52
2022/08/23 14:00:50;;;;;;;4.57;2.60;;;32.80;47.70;;;;;;5060936;28;20482;-51
2022/08/23 14:03:18;;;;;;;3.60;2.50;;;32.50;47.60;;;;;;5058889;28;20460;-51
2022/08/23 14:05:45;;;;;;;3.40;2.33;;;32.40;48.50;;;;;;5063453;28;21150;-51
2022/08/23 14:08:12;;;;;;;5.93;2.97;;;32.40;48.10;;;;;;5045505;28;20477;-52
2022/08/23 14:10:39;;;;;;;3.63;2.70;;;32.40;48.70;;;;;;5058861;28;20464;-57
2022/08/23 14:13:06;;;;;;;4.07;2.50;;;32.40;47.70;;;;;;5061666;28;20897;-51